sensor_id;sensor_type;location;lat;lon;timestamp;temperature;humidity
20398;DHT22;10358;49.590;11.030;2024-01-11T00:00:48;-5.70;99.90
20398;DHT22;10358;49.590;11.030;2024-01-11T00:03:14;-5.70;99.90
20398;DHT22;10358;49.590;11.030;2024-01-11T00:05:40;-5.70;99.90
20398;DHT22;10358;49.590;11.030;2024-01-11T00:08:07;-5.80;99.90
20398;DHT22;10358;49.590;11.030;2024-01-11T00:10:33;-5.70;99.90
20398;DHT22;10358;49.590;11.030;2024-01-11T00:12:58;-5.70;99.90
20398;DHT22;10358;49.590;11.030;2024-01-11T00:15:24;-5.70;99.90
20398;DHT22;10358;49.590;11.030;2024-01-11T00:17:49;-5.80;99.90
20398;DHT22;10358;49.590;11.030;2024-01-11T00:20:15;-5.80;99.90
20398;DHT22;10358;49.590;11.030;2024-01-11T00:22:41;-5.80;99.90
20398;DHT22;10358;49.590;11.030;2024-01-11T00:25:07;-5.80;99.90
20398;DHT22;10358;49.590;11.030;2024-01-11T00:27:33;-5.90;99.90
20398;DHT22;10358;49.590;11.030;2024-01-11T00:29:59;-5.80;99.90
20398;DHT22;10358;49.590;11.030;2024-01-11T00:32:24;-5.80;99.90
20398;DHT22;10358;49.590;11.030;2024-01-11T00:34:50;-5.80;99.90
20398;DHT22;10358;49.590;11.030;2024-01-11T00:37:16;-5.80;99.90
20398;DHT22;10358;49.590;11.030;2024-01-11T00:39:42;-5.80;99.90
20398;DHT22;10358;49.590;11.030;2024-01-11T00:42:07;-5.90;99.90
20398;DHT22;10358;49.590;11.030;2024-01-11T00:44:33;-5.90;99.90
20398;DHT22;10358;49.590;11.030;2024-01-11T00:46:58;-5.90;99.90
20398;DHT22;10358;49.590;11.030;2024-01-11T00:49:24;-5.90;99.90
20398;DHT22;10358;49.590;11.030;2024-01-11T00:51:49;-5.90;99.90
20398;DHT22;10358;49.590;11.030;2024-01-11T00:54:15;-6.00;99.90
20398;DHT22;10358;49.590;11.030;2024-01-11T00:56:40;-6.00;99.90
20398;DHT22;10358;49.590;11.030;2024-01-11T00:59:06;-6.00;99.90
20398;DHT22;10358;49.590;11.030;2024-01-11T01:01:31;-6.10;99.90
20398;DHT22;10358;49.590;11.030;2024-01-11T01:03:57;-6.10;99.90
20398;DHT22;10358;49.590;11.030;2024-01-11T01:06:23;-6.10;99.90
20398;DHT22;10358;49.590;11.030;2024-01-11T01:08:48;-6.10;99.90
20398;DHT22;10358;49.590;11.030;2024-01-11T01:11:14;-6.10;99.90
20398;DHT22;10358;49.590;11.030;2024-01-11T01:13:40;-6.20;99.90
20398;DHT22;10358;49.590;11.030;2024-01-11T01:16:05;-6.20;99.90
20398;DHT22;10358;49.590;11.030;2024-01-11T01:18:31;-6.20;99.90
20398;DHT22;10358;49.590;11.030;2024-01-11T01:20:56;-6.20;99.90
20398;DHT22;10358;49.590;11.030;2024-01-11T01:23:22;-6.20;99.90
20398;DHT22;10358;49.590;11.030;2024-01-11T01:25:48;-6.30;99.90
20398;DHT22;10358;49.590;11.030;2024-01-11T01:28:14;-6.30;99.90
20398;DHT22;10358;49.590;11.030;2024-01-11T01:30:39;-6.30;99.90
20398;DHT22;10358;49.590;11.030;2024-01-11T01:33:05;-6.40;99.90
20398;DHT22;10358;49.590;11.030;2024-01-11T01:35:30;-6.40;99.90
20398;DHT22;10358;49.590;11.030;2024-01-11T01:37:56;-6.40;99.90
20398;DHT22;10358;49.590;11.030;2024-01-11T01:40:22;-6.40;99.90
20398;DHT22;10358;49.590;11.030;2024-01-11T01:42:48;-6.40;99.90
20398;DHT22;10358;49.590;11.030;2024-01-11T01:45:15;-6.40;99.90
20398;DHT22;10358;49.590;11.030;2024-01-11T01:47:41;-6.40;99.90
20398;DHT22;10358;49.590;11.030;2024-01-11T01:50:08;-6.30;99.90
20398;DHT22;10358;49.590;11.030;2024-01-11T01:52:36;-6.30;99.90
20398;DHT22;10358;49.590;11.030;2024-01-11T01:55:04;-6.30;99.90
20398;DHT22;10358;49.590;11.030;2024-01-11T01:57:32;-6.30;99.90
20398;DHT22;10358;49.590;11.030;2024-01-11T02:00:00;-6.40;99.90
20398;DHT22;10358;49.590;11.030;2024-01-11T02:02:27;-6.50;99.90
20398;DHT22;10358;49.590;11.030;2024-01-11T02:04:54;-6.50;99.90
20398;DHT22;10358;49.590;11.030;2024-01-11T02:07:19;-6.60;99.90
20398;DHT22;10358;49.590;11.030;2024-01-11T02:09:46;-6.60;99.90
20398;DHT22;10358;49.590;11.030;2024-01-11T02:12:12;-6.60;99.90
20398;DHT22;10358;49.590;11.030;2024-01-11T02:14:38;-6.60;99.90
20398;DHT22;10358;49.590;11.030;2024-01-11T02:17:05;-6.60;99.90
20398;DHT22;10358;49.590;11.030;2024-01-11T02:19:30;-6.60;99.90
20398;DHT22;10358;49.590;11.030;2024-01-11T02:22:00;-6.60;99.90
20398;DHT22;10358;49.590;11.030;2024-01-11T02:24:27;-6.60;99.90
20398;DHT22;10358;49.590;11.030;2024-01-11T02:27:03;-6.60;99.90
20398;DHT22;10358;49.590;11.030;2024-01-11T02:29:30;-6.70;99.90
20398;DHT22;10358;49.590;11.030;2024-01-11T02:31:56;-6.70;99.90
20398;DHT22;10358;49.590;11.030;2024-01-11T02:34:27;-6.70;99.90
20398;DHT22;10358;49.590;11.030;2024-01-11T02:36:53;-6.70;99.90
20398;DHT22;10358;49.590;11.030;2024-01-11T02:39:20;-6.70;99.90
20398;DHT22;10358;49.590;11.030;2024-01-11T02:41:48;-6.70;99.90
20398;DHT22;10358;49.590;11.030;2024-01-11T02:44:15;-6.80;99.90
20398;DHT22;10358;49.590;11.030;2024-01-11T02:46:40;-6.80;99.90
20398;DHT22;10358;49.590;11.030;2024-01-11T02:49:06;-6.80;99.90
20398;DHT22;10358;49.590;11.030;2024-01-11T02:51:31;-6.80;99.90
20398;DHT22;10358;49.590;11.030;2024-01-11T02:53:57;-6.80;99.90
20398;DHT22;10358;49.590;11.030;2024-01-11T02:56:23;-6.90;99.90
20398;DHT22;10358;49.590;11.030;2024-01-11T02:58:49;-6.80;99.90
20398;DHT22;10358;49.590;11.030;2024-01-11T03:01:14;-6.80;99.90
20398;DHT22;10358;49.590;11.030;2024-01-11T03:03:41;-6.70;99.90
20398;DHT22;10358;49.590;11.030;2024-01-11T03:06:07;-6.70;99.90
20398;DHT22;10358;49.590;11.030;2024-01-11T03:08:33;-6.70;99.90
20398;DHT22;10358;49.590;11.030;2024-01-11T03:10:58;-6.70;99.90
20398;DHT22;10358;49.590;11.030;2024-01-11T03:13:24;-6.70;99.90
20398;DHT22;10358;49.590;11.030;2024-01-11T03:15:50;-6.80;99.90
20398;DHT22;10358;49.590;11.030;2024-01-11T03:18:15;-6.80;99.90
20398;DHT22;10358;49.590;11.030;2024-01-11T03:20:41;-6.80;99.90
20398;DHT22;10358;49.590;11.030;2024-01-11T03:23:07;-6.90;99.90
20398;DHT22;10358;49.590;11.030;2024-01-11T03:25:32;-6.90;99.90
20398;DHT22;10358;49.590;11.030;2024-01-11T03:27:58;-6.90;99.90
20398;DHT22;10358;49.590;11.030;2024-01-11T03:30:27;-7.00;99.90
20398;DHT22;10358;49.590;11.030;2024-01-11T03:32:53;-7.00;99.90
20398;DHT22;10358;49.590;11.030;2024-01-11T03:35:20;-7.10;99.90
20398;DHT22;10358;49.590;11.030;2024-01-11T03:37:46;-7.20;99.90
20398;DHT22;10358;49.590;11.030;2024-01-11T03:40:11;-7.10;99.90
20398;DHT22;10358;49.590;11.030;2024-01-11T03:42:38;-7.10;99.90
20398;DHT22;10358;49.590;11.030;2024-01-11T03:45:04;-7.10;99.90
20398;DHT22;10358;49.590;11.030;2024-01-11T03:47:30;-7.10;99.90
20398;DHT22;10358;49.590;11.030;2024-01-11T03:49:56;-7.10;99.90
20398;DHT22;10358;49.590;11.030;2024-01-11T03:52:22;-7.10;99.90
20398;DHT22;10358;49.590;11.030;2024-01-11T03:54:48;-7.20;99.90
20398;DHT22;10358;49.590;11.030;2024-01-11T03:57:14;-7.20;99.90
20398;DHT22;10358;49.590;11.030;2024-01-11T03:59:40;-7.30;99.90
20398;DHT22;10358;49.590;11.030;2024-01-11T04:02:06;-7.20;99.90
20398;DHT22;10358;49.590;11.030;2024-01-11T04:04:32;-7.20;99.90
20398;DHT22;10358;49.590;11.030;2024-01-11T04:06:58;-7.30;99.90
20398;DHT22;10358;49.590;11.030;2024-01-11T04:09:24;-7.30;99.90
20398;DHT22;10358;49.590;11.030;2024-01-11T04:11:49;-7.30;99.90
20398;DHT22;10358;49.590;11.030;2024-01-11T04:14:15;-7.40;99.90
20398;DHT22;10358;49.590;11.030;2024-01-11T04:16:41;-7.40;99.90
20398;DHT22;10358;49.590;11.030;2024-01-11T04:19:07;-7.30;99.90
20398;DHT22;10358;49.590;11.030;2024-01-11T04:21:33;-7.30;99.90
20398;DHT22;10358;49.590;11.030;2024-01-11T04:23:59;-7.30;99.90
20398;DHT22;10358;49.590;11.030;2024-01-11T04:26:25;-7.30;99.90
20398;DHT22;10358;49.590;11.030;2024-01-11T04:28:52;-7.30;99.90
20398;DHT22;10358;49.590;11.030;2024-01-11T04:31:18;-7.40;99.90
20398;DHT22;10358;49.590;11.030;2024-01-11T04:33:44;-7.50;99.90
20398;DHT22;10358;49.590;11.030;2024-01-11T04:36:10;-7.50;99.90
20398;DHT22;10358;49.590;11.030;2024-01-11T04:38:37;-7.50;99.90
20398;DHT22;10358;49.590;11.030;2024-01-11T04:41:08;-7.50;99.90
20398;DHT22;10358;49.590;11.030;2024-01-11T04:43:39;-7.60;99.90
20398;DHT22;10358;49.590;11.030;2024-01-11T04:46:22;-7.60;99.90
20398;DHT22;10358;49.590;11.030;2024-01-11T04:48:48;-7.60;99.90
20398;DHT22;10358;49.590;11.030;2024-01-11T04:51:15;-7.60;99.90
20398;DHT22;10358;49.590;11.030;2024-01-11T04:53:41;-7.60;99.90
20398;DHT22;10358;49.590;11.030;2024-01-11T04:56:08;-7.60;99.90
20398;DHT22;10358;49.590;11.030;2024-01-11T04:58:34;-7.60;99.90
20398;DHT22;10358;49.590;11.030;2024-01-11T05:01:03;-7.60;99.90
20398;DHT22;10358;49.590;11.030;2024-01-11T05:03:29;-7.60;99.90
20398;DHT22;10358;49.590;11.030;2024-01-11T05:05:55;-7.50;99.90
20398;DHT22;10358;49.590;11.030;2024-01-11T05:08:21;-7.50;99.90
20398;DHT22;10358;49.590;11.030;2024-01-11T05:10:47;-7.60;99.90
20398;DHT22;10358;49.590;11.030;2024-01-11T05:13:12;-7.50;99.90
20398;DHT22;10358;49.590;11.030;2024-01-11T05:15:38;-7.60;99.90
20398;DHT22;10358;49.590;11.030;2024-01-11T05:18:03;-7.70;99.90
20398;DHT22;10358;49.590;11.030;2024-01-11T05:20:29;-7.70;99.90
20398;DHT22;10358;49.590;11.030;2024-01-11T05:22:55;-7.80;99.90
20398;DHT22;10358;49.590;11.030;2024-01-11T05:25:20;-7.90;99.90
20398;DHT22;10358;49.590;11.030;2024-01-11T05:27:46;-7.90;99.90
20398;DHT22;10358;49.590;11.030;2024-01-11T05:30:11;-7.90;99.90
20398;DHT22;10358;49.590;11.030;2024-01-11T05:32:37;-7.90;99.90
20398;DHT22;10358;49.590;11.030;2024-01-11T05:35:03;-7.90;99.90
20398;DHT22;10358;49.590;11.030;2024-01-11T05:37:29;-7.90;99.90
20398;DHT22;10358;49.590;11.030;2024-01-11T05:39:54;-7.80;99.90
20398;DHT22;10358;49.590;11.030;2024-01-11T05:42:23;-7.80;99.90
20398;DHT22;10358;49.590;11.030;2024-01-11T05:44:48;-7.80;99.90
20398;DHT22;10358;49.590;11.030;2024-01-11T05:47:14;-7.90;99.90
20398;DHT22;10358;49.590;11.030;2024-01-11T05:49:40;-7.90;99.90
20398;DHT22;10358;49.590;11.030;2024-01-11T05:52:07;-8.00;99.90
20398;DHT22;10358;49.590;11.030;2024-01-11T05:54:33;-8.00;99.90
20398;DHT22;10358;49.590;11.030;2024-01-11T05:56:59;-8.00;99.90
20398;DHT22;10358;49.590;11.030;2024-01-11T05:59:25;-8.10;99.90
20398;DHT22;10358;49.590;11.030;2024-01-11T06:01:50;-8.10;99.90
20398;DHT22;10358;49.590;11.030;2024-01-11T06:04:16;-8.10;99.90
20398;DHT22;10358;49.590;11.030;2024-01-11T06:06:42;-8.10;99.90
20398;DHT22;10358;49.590;11.030;2024-01-11T06:09:07;-8.00;99.90
20398;DHT22;10358;49.590;11.030;2024-01-11T06:11:34;-8.00;99.90
20398;DHT22;10358;49.590;11.030;2024-01-11T06:14:00;-8.00;99.90
20398;DHT22;10358;49.590;11.030;2024-01-11T06:16:28;-7.90;99.90
20398;DHT22;10358;49.590;11.030;2024-01-11T06:18:54;-7.90;99.90
20398;DHT22;10358;49.590;11.030;2024-01-11T06:21:20;-7.80;99.90
20398;DHT22;10358;49.590;11.030;2024-01-11T06:23:45;-7.80;99.90
20398;DHT22;10358;49.590;11.030;2024-01-11T06:26:11;-7.80;99.90
20398;DHT22;10358;49.590;11.030;2024-01-11T06:28:36;-7.80;99.90
20398;DHT22;10358;49.590;11.030;2024-01-11T06:31:02;-7.90;99.90
20398;DHT22;10358;49.590;11.030;2024-01-11T06:33:28;-8.00;99.90
20398;DHT22;10358;49.590;11.030;2024-01-11T06:35:54;-8.00;99.90
20398;DHT22;10358;49.590;11.030;2024-01-11T06:38:19;-8.00;99.90
20398;DHT22;10358;49.590;11.030;2024-01-11T06:40:45;-8.00;99.90
20398;DHT22;10358;49.590;11.030;2024-01-11T06:43:12;-8.00;99.90
20398;DHT22;10358;49.590;11.030;2024-01-11T06:45:38;-8.00;99.90
20398;DHT22;10358;49.590;11.030;2024-01-11T06:48:04;-8.00;99.90
20398;DHT22;10358;49.590;11.030;2024-01-11T06:50:30;-7.90;99.90
20398;DHT22;10358;49.590;11.030;2024-01-11T06:52:55;-7.90;99.90
20398;DHT22;10358;49.590;11.030;2024-01-11T06:55:21;-7.80;99.90
20398;DHT22;10358;49.590;11.030;2024-01-11T06:57:47;-7.80;99.90
20398;DHT22;10358;49.590;11.030;2024-01-11T07:00:13;-7.80;99.90
20398;DHT22;10358;49.590;11.030;2024-01-11T07:02:39;-7.70;99.90
20398;DHT22;10358;49.590;11.030;2024-01-11T07:05:08;-7.90;99.90
20398;DHT22;10358;49.590;11.030;2024-01-11T07:07:34;-7.90;99.90
20398;DHT22;10358;49.590;11.030;2024-01-11T07:09:59;-7.90;99.90
20398;DHT22;10358;49.590;11.030;2024-01-11T07:12:25;-7.90;99.90
20398;DHT22;10358;49.590;11.030;2024-01-11T07:14:51;-8.00;99.90
20398;DHT22;10358;49.590;11.030;2024-01-11T07:17:17;-8.00;99.90
20398;DHT22;10358;49.590;11.030;2024-01-11T07:19:43;-8.00;99.90
20398;DHT22;10358;49.590;11.030;2024-01-11T07:22:08;-8.00;99.90
20398;DHT22;10358;49.590;11.030;2024-01-11T07:24:34;-8.00;99.90
20398;DHT22;10358;49.590;11.030;2024-01-11T07:27:04;-8.00;99.90
20398;DHT22;10358;49.590;11.030;2024-01-11T07:29:30;-8.00;99.90
20398;DHT22;10358;49.590;11.030;2024-01-11T07:31:56;-8.00;99.90
20398;DHT22;10358;49.590;11.030;2024-01-11T07:34:21;-8.10;99.90
20398;DHT22;10358;49.590;11.030;2024-01-11T07:36:47;-8.20;99.90
20398;DHT22;10358;49.590;11.030;2024-01-11T07:39:13;-8.10;99.90
20398;DHT22;10358;49.590;11.030;2024-01-11T07:41:38;-8.00;99.90
20398;DHT22;10358;49.590;11.030;2024-01-11T07:44:04;-8.00;99.90
20398;DHT22;10358;49.590;11.030;2024-01-11T07:46:29;-7.90;99.90
20398;DHT22;10358;49.590;11.030;2024-01-11T07:48:55;-7.90;99.90
20398;DHT22;10358;49.590;11.030;2024-01-11T07:51:20;-7.90;99.90
20398;DHT22;10358;49.590;11.030;2024-01-11T07:53:46;-7.90;99.90
20398;DHT22;10358;49.590;11.030;2024-01-11T07:56:14;-7.80;99.90
20398;DHT22;10358;49.590;11.030;2024-01-11T07:58:40;-7.70;99.90
20398;DHT22;10358;49.590;11.030;2024-01-11T08:01:07;-7.70;99.90
20398;DHT22;10358;49.590;11.030;2024-01-11T08:03:33;-7.60;99.90
20398;DHT22;10358;49.590;11.030;2024-01-11T08:06:00;-7.50;99.90
20398;DHT22;10358;49.590;11.030;2024-01-11T08:08:26;-7.40;99.90
20398;DHT22;10358;49.590;11.030;2024-01-11T08:10:51;-7.40;99.90
20398;DHT22;10358;49.590;11.030;2024-01-11T08:13:18;-7.40;99.90
20398;DHT22;10358;49.590;11.030;2024-01-11T08:15:43;-7.30;99.90
20398;DHT22;10358;49.590;11.030;2024-01-11T08:18:09;-7.20;99.90
20398;DHT22;10358;49.590;11.030;2024-01-11T08:20:35;-7.10;99.90
20398;DHT22;10358;49.590;11.030;2024-01-11T08:23:00;-7.10;99.90
20398;DHT22;10358;49.590;11.030;2024-01-11T08:25:26;-7.00;99.90
20398;DHT22;10358;49.590;11.030;2024-01-11T08:27:52;-6.80;99.90
20398;DHT22;10358;49.590;11.030;2024-01-11T08:30:17;-6.70;99.90
20398;DHT22;10358;49.590;11.030;2024-01-11T08:32:43;-6.60;99.90
20398;DHT22;10358;49.590;11.030;2024-01-11T08:35:09;-6.50;99.90
20398;DHT22;10358;49.590;11.030;2024-01-11T08:37:38;-6.50;99.90
20398;DHT22;10358;49.590;11.030;2024-01-11T08:40:05;-6.30;99.90
20398;DHT22;10358;49.590;11.030;2024-01-11T08:42:32;-6.20;99.90
20398;DHT22;10358;49.590;11.030;2024-01-11T08:44:58;-6.10;99.90
20398;DHT22;10358;49.590;11.030;2024-01-11T08:47:25;-6.00;99.90
20398;DHT22;10358;49.590;11.030;2024-01-11T08:49:52;-5.80;99.90
20398;DHT22;10358;49.590;11.030;2024-01-11T08:52:18;-5.70;99.90
20398;DHT22;10358;49.590;11.030;2024-01-11T08:54:43;-5.60;99.90
20398;DHT22;10358;49.590;11.030;2024-01-11T08:57:09;-5.50;99.90
20398;DHT22;10358;49.590;11.030;2024-01-11T08:59:39;-5.50;99.90
20398;DHT22;10358;49.590;11.030;2024-01-11T09:02:04;-5.40;99.90
20398;DHT22;10358;49.590;11.030;2024-01-11T09:04:30;-5.40;99.90
20398;DHT22;10358;49.590;11.030;2024-01-11T09:06:56;-5.40;99.90
20398;DHT22;10358;49.590;11.030;2024-01-11T09:09:22;-5.30;99.90
20398;DHT22;10358;49.590;11.030;2024-01-11T09:11:47;-5.20;99.90
20398;DHT22;10358;49.590;11.030;2024-01-11T09:14:15;-5.00;99.90
20398;DHT22;10358;49.590;11.030;2024-01-11T09:16:41;-5.00;99.90
20398;DHT22;10358;49.590;11.030;2024-01-11T09:19:07;-4.90;99.90
20398;DHT22;10358;49.590;11.030;2024-01-11T09:21:32;-4.90;99.90
20398;DHT22;10358;49.590;11.030;2024-01-11T09:23:58;-4.80;99.90
20398;DHT22;10358;49.590;11.030;2024-01-11T09:26:24;-4.70;99.90
20398;DHT22;10358;49.590;11.030;2024-01-11T09:28:49;-4.60;99.90
20398;DHT22;10358;49.590;11.030;2024-01-11T09:31:15;-4.60;99.90
20398;DHT22;10358;49.590;11.030;2024-01-11T09:33:40;-4.50;99.90
20398;DHT22;10358;49.590;11.030;2024-01-11T09:36:10;-4.40;99.90
20398;DHT22;10358;49.590;11.030;2024-01-11T09:38:36;-4.40;99.90
20398;DHT22;10358;49.590;11.030;2024-01-11T09:41:12;-4.20;99.90
20398;DHT22;10358;49.590;11.030;2024-01-11T09:43:40;-4.20;99.90
20398;DHT22;10358;49.590;11.030;2024-01-11T09:46:06;-4.10;99.90
20398;DHT22;10358;49.590;11.030;2024-01-11T09:48:36;-4.00;99.90
20398;DHT22;10358;49.590;11.030;2024-01-11T09:51:03;-3.80;99.90
20398;DHT22;10358;49.590;11.030;2024-01-11T09:53:32;-3.70;99.90
20398;DHT22;10358;49.590;11.030;2024-01-11T09:55:58;-3.60;99.90
20398;DHT22;10358;49.590;11.030;2024-01-11T09:58:25;-3.50;99.90
20398;DHT22;10358;49.590;11.030;2024-01-11T10:00:55;-3.40;99.90
20398;DHT22;10358;49.590;11.030;2024-01-11T10:03:24;-3.30;99.90
20398;DHT22;10358;49.590;11.030;2024-01-11T10:05:50;-3.30;99.90
20398;DHT22;10358;49.590;11.030;2024-01-11T10:08:21;-3.20;99.90
20398;DHT22;10358;49.590;11.030;2024-01-11T10:10:47;-3.10;99.90
20398;DHT22;10358;49.590;11.030;2024-01-11T10:13:13;-3.10;99.90
20398;DHT22;10358;49.590;11.030;2024-01-11T10:15:46;-3.10;99.90
20398;DHT22;10358;49.590;11.030;2024-01-11T10:18:11;-3.00;99.90
20398;DHT22;10358;49.590;11.030;2024-01-11T10:20:37;-2.90;99.90
20398;DHT22;10358;49.590;11.030;2024-01-11T10:23:04;-2.90;99.90
20398;DHT22;10358;49.590;11.030;2024-01-11T10:25:29;-2.80;99.90
20398;DHT22;10358;49.590;11.030;2024-01-11T10:27:55;-2.80;99.90
20398;DHT22;10358;49.590;11.030;2024-01-11T10:30:20;-2.70;99.90
20398;DHT22;10358;49.590;11.030;2024-01-11T10:32:48;-2.60;99.90
20398;DHT22;10358;49.590;11.030;2024-01-11T10:35:15;-2.60;99.90
20398;DHT22;10358;49.590;11.030;2024-01-11T10:37:43;-2.60;99.90
20398;DHT22;10358;49.590;11.030;2024-01-11T10:40:09;-2.50;99.90
20398;DHT22;10358;49.590;11.030;2024-01-11T10:42:45;-2.50;99.90
20398;DHT22;10358;49.590;11.030;2024-01-11T10:45:14;-2.50;99.90
20398;DHT22;10358;49.590;11.030;2024-01-11T10:47:50;-2.40;99.90
20398;DHT22;10358;49.590;11.030;2024-01-11T10:50:16;-2.40;99.90
20398;DHT22;10358;49.590;11.030;2024-01-11T10:52:51;-2.40;99.90
20398;DHT22;10358;49.590;11.030;2024-01-11T10:55:20;-2.30;99.90
20398;DHT22;10358;49.590;11.030;2024-01-11T10:57:48;-2.30;99.90
20398;DHT22;10358;49.590;11.030;2024-01-11T11:00:15;-2.30;99.90
20398;DHT22;10358;49.590;11.030;2024-01-11T11:02:42;-2.20;99.90
20398;DHT22;10358;49.590;11.030;2024-01-11T11:05:08;-2.20;99.90
20398;DHT22;10358;49.590;11.030;2024-01-11T11:07:37;-2.10;99.90
20398;DHT22;10358;49.590;11.030;2024-01-11T11:10:04;-2.10;99.90
20398;DHT22;10358;49.590;11.030;2024-01-11T11:12:32;-2.00;99.90
20398;DHT22;10358;49.590;11.030;2024-01-11T11:15:01;-2.00;99.90
20398;DHT22;10358;49.590;11.030;2024-01-11T11:17:28;-1.90;99.90
20398;DHT22;10358;49.590;11.030;2024-01-11T11:19:54;-1.90;99.90
20398;DHT22;10358;49.590;11.030;2024-01-11T11:22:20;-1.80;99.90
20398;DHT22;10358;49.590;11.030;2024-01-11T11:24:46;-1.80;99.90
20398;DHT22;10358;49.590;11.030;2024-01-11T11:27:14;-1.70;99.90
20398;DHT22;10358;49.590;11.030;2024-01-11T11:29:41;-1.60;99.90
20398;DHT22;10358;49.590;11.030;2024-01-11T11:32:11;-1.50;99.90
20398;DHT22;10358;49.590;11.030;2024-01-11T11:34:42;-1.50;99.90
20398;DHT22;10358;49.590;11.030;2024-01-11T11:37:09;-1.40;99.90
20398;DHT22;10358;49.590;11.030;2024-01-11T11:39:36;-1.40;99.90
20398;DHT22;10358;49.590;11.030;2024-01-11T11:42:02;-1.40;99.90
20398;DHT22;10358;49.590;11.030;2024-01-11T11:44:28;-1.30;99.90
20398;DHT22;10358;49.590;11.030;2024-01-11T11:46:54;-1.30;99.90
20398;DHT22;10358;49.590;11.030;2024-01-11T11:49:20;-1.30;99.90
20398;DHT22;10358;49.590;11.030;2024-01-11T11:51:45;-1.20;99.90
20398;DHT22;10358;49.590;11.030;2024-01-11T11:54:11;-1.10;99.90
20398;DHT22;10358;49.590;11.030;2024-01-11T11:56:37;-1.10;99.90
20398;DHT22;10358;49.590;11.030;2024-01-11T11:59:03;-1.00;99.90
20398;DHT22;10358;49.590;11.030;2024-01-11T12:01:29;-1.00;99.90
20398;DHT22;10358;49.590;11.030;2024-01-11T12:03:57;-1.00;99.90
20398;DHT22;10358;49.590;11.030;2024-01-11T12:06:22;-0.90;99.90
20398;DHT22;10358;49.590;11.030;2024-01-11T12:08:52;-0.80;99.90
20398;DHT22;10358;49.590;11.030;2024-01-11T12:11:22;-0.70;99.90
20398;DHT22;10358;49.590;11.030;2024-01-11T12:13:49;-0.70;99.90
20398;DHT22;10358;49.590;11.030;2024-01-11T12:16:15;-0.60;99.90
20398;DHT22;10358;49.590;11.030;2024-01-11T12:18:41;-0.60;99.90
20398;DHT22;10358;49.590;11.030;2024-01-11T12:21:07;-0.50;99.90
20398;DHT22;10358;49.590;11.030;2024-01-11T12:23:34;-0.40;99.90
20398;DHT22;10358;49.590;11.030;2024-01-11T12:26:03;-0.40;99.90
20398;DHT22;10358;49.590;11.030;2024-01-11T12:28:31;-0.30;99.90
20398;DHT22;10358;49.590;11.030;2024-01-11T12:30:58;-0.20;99.90
20398;DHT22;10358;49.590;11.030;2024-01-11T12:33:23;-0.20;99.90
20398;DHT22;10358;49.590;11.030;2024-01-11T12:35:50;-0.10;99.90
20398;DHT22;10358;49.590;11.030;2024-01-11T12:38:16;0.00;99.90
20398;DHT22;10358;49.590;11.030;2024-01-11T12:40:42;0.00;99.90
20398;DHT22;10358;49.590;11.030;2024-01-11T12:43:07;0.10;99.90
20398;DHT22;10358;49.590;11.030;2024-01-11T12:45:34;0.20;99.90
20398;DHT22;10358;49.590;11.030;2024-01-11T12:48:01;0.30;99.90
20398;DHT22;10358;49.590;11.030;2024-01-11T12:50:27;0.50;99.90
20398;DHT22;10358;49.590;11.030;2024-01-11T12:53:13;0.60;99.90
20398;DHT22;10358;49.590;11.030;2024-01-11T12:55:46;0.60;99.90
20398;DHT22;10358;49.590;11.030;2024-01-11T12:58:11;0.60;99.90
20398;DHT22;10358;49.590;11.030;2024-01-11T13:00:38;0.70;99.90
20398;DHT22;10358;49.590;11.030;2024-01-11T13:03:09;0.70;99.90
20398;DHT22;10358;49.590;11.030;2024-01-11T13:05:36;0.80;99.90
20398;DHT22;10358;49.590;11.030;2024-01-11T13:08:02;0.80;99.90
20398;DHT22;10358;49.590;11.030;2024-01-11T13:10:29;1.00;99.90
20398;DHT22;10358;49.590;11.030;2024-01-11T13:12:55;1.10;99.90
20398;DHT22;10358;49.590;11.030;2024-01-11T13:15:21;1.20;99.90
20398;DHT22;10358;49.590;11.030;2024-01-11T13:17:48;1.30;99.90
20398;DHT22;10358;49.590;11.030;2024-01-11T13:20:14;1.30;99.90
20398;DHT22;10358;49.590;11.030;2024-01-11T13:22:40;1.40;99.90
20398;DHT22;10358;49.590;11.030;2024-01-11T13:25:06;1.30;99.90
20398;DHT22;10358;49.590;11.030;2024-01-11T13:27:32;1.30;99.90
20398;DHT22;10358;49.590;11.030;2024-01-11T13:29:57;1.40;99.90
20398;DHT22;10358;49.590;11.030;2024-01-11T13:32:23;1.40;99.90
20398;DHT22;10358;49.590;11.030;2024-01-11T13:34:49;1.60;99.90
20398;DHT22;10358;49.590;11.030;2024-01-11T13:37:19;1.60;99.90
20398;DHT22;10358;49.590;11.030;2024-01-11T13:39:45;1.80;99.90
20398;DHT22;10358;49.590;11.030;2024-01-11T13:42:11;1.90;99.90
20398;DHT22;10358;49.590;11.030;2024-01-11T13:44:38;1.80;99.90
20398;DHT22;10358;49.590;11.030;2024-01-11T13:47:04;1.80;99.90
20398;DHT22;10358;49.590;11.030;2024-01-11T13:49:29;1.80;99.90
20398;DHT22;10358;49.590;11.030;2024-01-11T13:51:56;1.80;99.90
20398;DHT22;10358;49.590;11.030;2024-01-11T13:54:21;1.90;99.90
20398;DHT22;10358;49.590;11.030;2024-01-11T13:56:47;2.00;99.90
20398;DHT22;10358;49.590;11.030;2024-01-11T13:59:13;2.10;99.90
20398;DHT22;10358;49.590;11.030;2024-01-11T14:01:39;2.10;99.90
20398;DHT22;10358;49.590;11.030;2024-01-11T14:04:04;2.20;99.90
20398;DHT22;10358;49.590;11.030;2024-01-11T14:06:30;2.20;99.90
20398;DHT22;10358;49.590;11.030;2024-01-11T14:08:56;2.20;99.90
20398;DHT22;10358;49.590;11.030;2024-01-11T14:11:22;2.40;99.90
20398;DHT22;10358;49.590;11.030;2024-01-11T14:13:49;2.50;99.90
20398;DHT22;10358;49.590;11.030;2024-01-11T14:16:14;2.50;99.90
20398;DHT22;10358;49.590;11.030;2024-01-11T14:18:42;2.50;99.80
20398;DHT22;10358;49.590;11.030;2024-01-11T14:21:07;2.50;99.90
20398;DHT22;10358;49.590;11.030;2024-01-11T14:23:37;2.50;99.50
20398;DHT22;10358;49.590;11.030;2024-01-11T14:26:02;2.60;99.70
20398;DHT22;10358;49.590;11.030;2024-01-11T14:28:28;2.70;98.80
20398;DHT22;10358;49.590;11.030;2024-01-11T14:30:53;2.70;99.20
20398;DHT22;10358;49.590;11.030;2024-01-11T14:33:19;2.60;98.10
20398;DHT22;10358;49.590;11.030;2024-01-11T14:35:45;2.50;98.40
20398;DHT22;10358;49.590;11.030;2024-01-11T14:38:10;2.60;98.80
20398;DHT22;10358;49.590;11.030;2024-01-11T14:40:36;2.70;99.10
20398;DHT22;10358;49.590;11.030;2024-01-11T14:43:02;2.70;99.30
20398;DHT22;10358;49.590;11.030;2024-01-11T14:45:29;2.60;98.50
20398;DHT22;10358;49.590;11.030;2024-01-11T14:47:55;2.60;98.60
20398;DHT22;10358;49.590;11.030;2024-01-11T14:50:21;2.50;99.00
20398;DHT22;10358;49.590;11.030;2024-01-11T14:52:46;2.40;98.50
20398;DHT22;10358;49.590;11.030;2024-01-11T14:55:13;2.30;98.90
20398;DHT22;10358;49.590;11.030;2024-01-11T14:57:41;2.20;99.10
20398;DHT22;10358;49.590;11.030;2024-01-11T15:00:07;2.20;99.30
20398;DHT22;10358;49.590;11.030;2024-01-11T15:02:33;2.20;99.20
20398;DHT22;10358;49.590;11.030;2024-01-11T15:04:59;2.10;99.40
20398;DHT22;10358;49.590;11.030;2024-01-11T15:07:25;2.10;99.40
20398;DHT22;10358;49.590;11.030;2024-01-11T15:09:51;2.00;99.60
20398;DHT22;10358;49.590;11.030;2024-01-11T15:12:16;1.90;99.20